Time;durP1;ratioP1;P1;durP2;ratioP2;P2;SDS_P1;SDS_P2;PMS_P1;PMS_P2;Temp;Humidity;BMP_temperature;BMP_pressure;BME280_temperature;BME280_humidity;BME280_pressure;Samples;Min_cycle;Max_cycle;Signal;HPM_P1;HPM_P2
2021/12/19 00:01:59;;;;;;;7.60;2.87;;;-2.80;99.90;;;;;;2213497;64;20170;-50
2021/12/19 00:09:07;;;;;;;7.53;2.33;;;-2.80;99.90;;;;;;2213442;64;20097;-33
2021/12/19 00:11:34;;;;;;;6.63;3.20;;;-2.90;99.90;;;;;;2213532;64;20128;-34
2021/12/19 00:14:01;;;;;;;6.23;2.80;;;-2.90;99.90;;;;;;2213598;64;20089;-33
2021/12/19 00:16:28;;;;;;;6.40;2.47;;;-2.90;99.90;;;;;;2216414;64;20085;-34
2021/12/19 00:18:55;;;;;;;4.17;1.87;;;-2.90;99.90;;;;;;2213523;64;20178;-33
2021/12/19 00:21:22;;;;;;;5.23;2.13;;;-2.80;99.90;;;;;;2216695;64;20523;-33
2021/12/19 00:23:50;;;;;;;3.53;1.53;;;-2.80;99.90;;;;;;2213461;64;20100;-39
2021/12/19 00:26:17;;;;;;;6.73;2.10;;;-2.80;99.90;;;;;;2213515;64;20136;-34
2021/12/19 00:28:44;;;;;;;3.33;1.70;;;-2.90;99.90;;;;;;2213542;64;20100;-34
2021/12/19 00:31:11;;;;;;;3.60;1.17;;;-2.90;99.90;;;;;;2213391;64;20166;-36
2021/12/19 00:33:39;;;;;;;2.27;1.23;;;-2.90;99.90;;;;;;2213363;64;20561;-38
2021/12/19 00:36:06;;;;;;;6.83;2.43;;;-2.90;99.90;;;;;;2213586;64;20085;-33
2021/12/19 00:38:33;;;;;;;4.90;2.13;;;-2.90;99.90;;;;;;2213426;64;20077;-33
2021/12/19 00:41:00;;;;;;;2.97;1.77;;;-2.90;99.90;;;;;;2213473;64;20178;-33
2021/12/19 00:43:44;;;;;;;2.77;0.90;;;-2.90;99.90;;;;;;2213502;64;20167;-34
2021/12/19 00:46:12;;;;;;;3.33;1.00;;;-2.90;99.90;;;;;;2213490;64;20093;-34
2021/12/19 00:48:41;;;;;;;3.60;1.60;;;-2.90;99.90;;;;;;2220290;64;20164;-35
2021/12/19 00:51:10;;;;;;;5.20;1.43;;;-2.90;99.90;;;;;;2210649;64;20158;-55
2021/12/19 00:53:37;;;;;;;3.10;1.43;;;-2.90;99.90;;;;;;2216881;64;20085;-33
2021/12/19 00:56:04;;;;;;;4.73;1.53;;;-2.90;99.90;;;;;;2217131;64;20541;-36
2021/12/19 00:58:31;;;;;;;5.30;1.70;;;-2.90;99.90;;;;;;2217078;64;20096;-35
2021/12/19 01:00:58;;;;;;;4.33;2.03;;;-2.90;99.90;;;;;;2220240;64;20150;-34
2021/12/19 01:03:25;;;;;;;2.90;1.10;;;-2.90;99.90;;;;;;2220010;64;20103;-33
2021/12/19 01:05:52;;;;;;;6.93;2.70;;;-2.90;99.90;;;;;;2220288;64;20092;-34
2021/12/19 01:08:19;;;;;;;4.17;1.63;;;-2.90;99.90;;;;;;2220303;64;20690;-34
2021/12/19 01:10:46;;;;;;;2.63;1.00;;;-3.00;99.90;;;;;;2220195;64;20088;-34
2021/12/19 01:13:14;;;;;;;5.33;1.93;;;-3.00;99.90;;;;;;2216642;64;20084;-37
2021/12/19 01:15:41;;;;;;;3.97;1.30;;;-3.00;99.90;;;;;;2220302;64;20092;-34
2021/12/19 01:18:08;;;;;;;3.00;0.90;;;-3.00;99.90;;;;;;2216684;64;20176;-33
2021/12/19 01:20:36;;;;;;;3.70;1.77;;;-3.00;99.90;;;;;;2220282;64;20177;-34
2021/12/19 01:23:03;;;;;;;5.27;1.60;;;-3.00;99.90;;;;;;2216868;64;20527;-33
2021/12/19 01:25:30;;;;;;;4.43;1.60;;;-3.00;99.90;;;;;;2216994;64;20177;-34
2021/12/19 01:27:57;;;;;;;5.00;1.53;;;-3.00;99.90;;;;;;2216860;64;20120;-33
2021/12/19 01:30:24;;;;;;;2.77;1.00;;;-3.00;99.90;;;;;;2216824;64;20077;-33
2021/12/19 01:32:51;;;;;;;3.77;1.17;;;-3.00;99.90;;;;;;2216680;64;20124;-34
2021/12/19 01:35:19;;;;;;;3.73;1.90;;;-2.90;99.90;;;;;;2216752;64;20097;-34
2021/12/19 01:37:46;;;;;;;2.73;1.70;;;-3.00;99.90;;;;;;2220246;64;20560;-34
2021/12/19 01:40:14;;;;;;;3.93;1.60;;;-3.00;99.90;;;;;;2216824;64;20181;-33
2021/12/19 01:42:42;;;;;;;1.97;0.93;;;-3.00;99.90;;;;;;2216796;64;20092;-55
2021/12/19 01:45:11;;;;;;;3.77;1.57;;;-2.90;99.90;;;;;;2216750;64;20556;-33
2021/12/19 01:47:38;;;;;;;3.03;1.50;;;-2.90;99.90;;;;;;2212896;64;417675;-34
2021/12/19 01:50:05;;;;;;;4.27;1.33;;;-2.90;99.90;;;;;;2216328;64;20539;-38
2021/12/19 01:52:33;;;;;;;2.90;1.37;;;-2.90;99.90;;;;;;2216464;64;20449;-33
2021/12/19 01:55:00;;;;;;;3.20;1.53;;;-2.90;99.90;;;;;;2216172;64;20096;-33
2021/12/19 01:57:27;;;;;;;4.87;1.63;;;-2.90;99.90;;;;;;2216415;64;20790;-33
2021/12/19 01:59:54;;;;;;;5.10;1.30;;;-2.90;99.90;;;;;;2216487;64;20096;-34
2021/12/19 02:02:21;;;;;;;3.17;0.73;;;-2.90;99.90;;;;;;2216317;64;20085;-39
2021/12/19 02:04:48;;;;;;;6.23;1.57;;;-2.90;99.90;;;;;;2216193;64;20178;-33
2021/12/19 02:07:15;;;;;;;2.13;0.83;;;-2.90;99.90;;;;;;2216379;64;20619;-35
2021/12/19 02:09:42;;;;;;;2.27;0.73;;;-2.80;99.90;;;;;;2219455;64;20111;-34
2021/12/19 02:12:09;;;;;;;2.87;1.40;;;-2.80;99.90;;;;;;2213168;64;20538;-34
2021/12/19 02:14:36;;;;;;;2.10;1.37;;;-2.80;99.90;;;;;;2219263;64;20095;-33
2021/12/19 02:17:03;;;;;;;1.90;0.70;;;-2.80;99.90;;;;;;2219459;64;20934;-35
2021/12/19 02:19:31;;;;;;;1.53;0.70;;;-2.80;99.90;;;;;;2219602;64;20085;-34
2021/12/19 02:21:57;;;;;;;3.27;1.87;;;-2.80;99.90;;;;;;2216360;64;20089;-35
2021/12/19 02:24:24;;;;;;;2.10;0.73;;;-2.80;99.90;;;;;;2216175;64;20442;-33
2021/12/19 02:26:51;;;;;;;1.80;0.70;;;-2.70;99.90;;;;;;2219577;64;20100;-34
2021/12/19 02:29:18;;;;;;;4.80;1.27;;;-2.70;99.90;;;;;;2207910;64;20284;-35
2021/12/19 02:31:45;;;;;;;2.23;1.63;;;-2.70;99.90;;;;;;2211386;64;20100;-34
2021/12/19 02:34:23;;;;;;;2.10;0.90;;;-2.70;99.90;;;;;;2211250;64;20104;-33
2021/12/19 02:36:59;;;;;;;3.93;1.70;;;-2.70;99.90;;;;;;2208287;64;20089;-42
2021/12/19 02:48:10;;;;;;;1.50;0.80;;;-2.70;99.90;;;;;;2206487;64;20100;-34
2021/12/19 02:48:13;;;;;;;5.60;2.08;;;-2.70;99.90;;;;;;2209026;64;20550;-34
2021/12/19 02:50:50;;;;;;;2.90;1.30;;;-2.60;99.90;;;;;;2208120;64;20096;-34
2021/12/19 02:53:26;;;;;;;5.77;2.43;;;-2.60;99.90;;;;;;2201924;64;20224;-35
2021/12/19 02:55:53;;;;;;;2.00;1.23;;;-2.60;99.90;;;;;;2211331;64;20089;-36
2021/12/19 02:58:19;;;;;;;7.07;2.93;;;-2.60;99.90;;;;;;2211335;64;20565;-33
2021/12/19 03:00:48;;;;;;;4.93;2.50;;;-2.60;99.90;;;;;;2214453;64;20599;-34
2021/12/19 03:03:15;;;;;;;2.30;0.87;;;-2.60;99.90;;;;;;2212901;64;20096;-33
2021/12/19 03:05:43;;;;;;;1.93;0.90;;;-2.60;99.90;;;;;;2213042;64;20104;-33
2021/12/19 03:08:11;;;;;;;0.63;0.40;;;-2.60;99.90;;;;;;2212747;64;20143;-35
2021/12/19 03:18:52;;;;;;;1.10;0.77;;;-2.60;99.90;;;;;;2204158;64;20097;-34
2021/12/19 03:21:23;;;;;;;9.83;3.87;;;-2.60;99.90;;;;;;2213349;64;20097;-39
2021/12/19 03:23:50;;;;;;;1.20;0.93;;;-2.70;99.90;;;;;;2213004;64;20160;-39
2021/12/19 03:26:17;;;;;;;0.90;0.47;;;-2.70;99.90;;;;;;2212627;64;20100;-48
2021/12/19 03:28:44;;;;;;;4.87;2.13;;;-2.60;99.90;;;;;;2212944;64;20096;-38
2021/12/19 03:31:11;;;;;;;6.57;2.90;;;-2.70;99.90;;;;;;2212774;64;20085;-34
2021/12/19 03:33:38;;;;;;;2.93;1.07;;;-2.70;99.90;;;;;;2212912;64;20105;-33
2021/12/19 03:36:06;;;;;;;1.67;1.23;;;-2.80;99.90;;;;;;2215964;64;20195;-35
2021/12/19 03:38:39;;;;;;;2.67;0.77;;;-2.80;99.90;;;;;;2216132;64;20107;-34
2021/12/19 03:41:18;;;;;;;1.60;0.73;;;-2.70;99.90;;;;;;2212957;64;20077;-34
2021/12/19 03:43:45;;;;;;;8.07;3.10;;;-2.80;99.90;;;;;;2216091;64;20093;-33
2021/12/19 03:46:12;;;;;;;2.77;1.43;;;-2.80;99.90;;;;;;2213000;64;20145;-33
2021/12/19 03:48:39;;;;;;;1.57;1.10;;;-2.80;99.90;;;;;;2216573;64;20101;-32
2021/12/19 03:51:06;;;;;;;6.50;2.73;;;-2.70;99.90;;;;;;2216692;64;20097;-33
2021/12/19 03:53:33;;;;;;;4.13;2.30;;;-2.70;99.90;;;;;;2213346;64;20095;-33
2021/12/19 03:55:59;;;;;;;7.80;3.57;;;-2.70;99.90;;;;;;2219668;64;20088;-38
2021/12/19 03:58:26;;;;;;;3.97;1.37;;;-2.70;99.90;;;;;;2216755;64;20104;-33
2021/12/19 04:00:59;;;;;;;6.90;2.80;;;-2.70;99.90;;;;;;2216726;64;20092;-35
2021/12/19 04:03:26;;;;;;;3.07;1.27;;;-2.80;99.90;;;;;;2216693;64;20540;-36
2021/12/19 04:05:53;;;;;;;5.30;2.67;;;-2.80;99.90;;;;;;2216636;64;20089;-34
2021/12/19 04:08:20;;;;;;;8.10;3.40;;;-2.80;99.90;;;;;;2216697;64;20084;-39
2021/12/19 04:10:48;;;;;;;7.10;3.50;;;-2.80;99.90;;;;;;2207710;64;20101;-34
2021/12/19 04:13:15;;;;;;;8.70;3.43;;;-2.70;99.90;;;;;;2204598;64;20112;-33
2021/12/19 04:15:45;;;;;;;7.83;2.23;;;-2.80;99.90;;;;;;2207771;64;20093;-35
2021/12/19 04:18:12;;;;;;;5.00;2.77;;;-2.70;99.90;;;;;;2207877;64;20104;-40
2021/12/19 04:20:39;;;;;;;7.57;3.47;;;-2.80;99.90;;;;;;2207683;64;20128;-34
2021/12/19 04:23:06;;;;;;;6.57;2.90;;;-2.80;99.90;;;;;;2199968;65;20090;-34
2021/12/19 04:25:33;;;;;;;4.23;2.67;;;-2.80;99.90;;;;;;2200202;65;20141;-37
2021/12/19 04:27:59;;;;;;;5.77;2.87;;;-2.80;99.90;;;;;;2200047;65;20094;-35
2021/12/19 04:30:26;;;;;;;8.27;2.90;;;-2.80;99.90;;;;;;2200246;65;20094;-33
2021/12/19 04:33:03;;;;;;;4.83;2.47;;;-2.80;99.90;;;;;;2200021;65;20105;-33
2021/12/19 04:35:35;;;;;;;4.07;2.23;;;-2.90;99.90;;;;;;2196782;65;20121;-34
2021/12/19 04:44:23;;;;;;;3.73;2.43;;;-2.90;99.90;;;;;;2208341;64;20074;-34
2021/12/19 04:52:38;;;;;;;3.40;1.90;;;-3.00;99.90;;;;;;2208583;64;19973;-35
2021/12/19 04:55:38;;;;;;;5.77;2.63;;;-3.00;99.90;;;;;;2217991;64;20584;-34
2021/12/19 04:58:49;;;;;;;8.10;4.03;;;-3.20;99.90;;;;;;2214899;64;20441;-33
2021/12/19 05:14:47;;;;;;;8.50;4.60;;;-3.30;99.90;;;;;;2212387;64;20556;-34
2021/12/19 05:17:20;;;;;;;9.80;4.53;;;-3.30;99.90;;;;;;2220474;64;20583;-33
2021/12/19 05:20:33;;;;;;;8.83;4.37;;;-3.30;99.90;;;;;;2216793;64;20089;-33
2021/12/19 05:22:40;;;;;;;8.20;3.13;;;-3.30;99.90;;;;;;2214041;64;20101;-33
2021/12/19 05:25:14;;;;;;;11.63;3.50;;;-3.30;99.90;;;;;;2214835;64;20136;-34
2021/12/19 05:27:42;;;;;;;9.90;3.30;;;-3.30;99.90;;;;;;2212019;64;20089;-32
2021/12/19 05:30:10;;;;;;;8.47;3.10;;;-3.20;99.90;;;;;;2215269;64;20202;-36
2021/12/19 05:32:37;;;;;;;6.97;2.67;;;-3.20;99.90;;;;;;2208911;64;20069;-34
2021/12/19 05:35:04;;;;;;;5.30;2.50;;;-3.20;99.90;;;;;;2208999;64;20516;-33
2021/12/19 05:45:47;;;;;;;3.20;1.40;;;-3.30;99.90;;;;;;2209289;64;20100;-34
2021/12/19 05:48:13;;;;;;;3.00;1.70;;;-3.30;99.90;;;;;;2215242;64;20157;-33
2021/12/19 05:50:40;;;;;;;5.30;2.00;;;-3.20;99.90;;;;;;2208733;64;20210;-34
2021/12/19 05:53:07;;;;;;;4.63;1.70;;;-3.20;99.90;;;;;;2208999;64;20704;-35
2021/12/19 05:55:34;;;;;;;5.10;2.20;;;-3.10;99.90;;;;;;2208560;64;20323;-34
2021/12/19 05:58:01;;;;;;;2.83;1.50;;;-3.10;99.90;;;;;;2208805;64;20119;-33
2021/12/19 06:00:28;;;;;;;3.00;1.33;;;-3.10;99.90;;;;;;2208778;64;20267;-35
2021/12/19 06:02:54;;;;;;;3.97;2.30;;;-3.10;99.90;;;;;;2213129;64;20101;-34
2021/12/19 06:05:21;;;;;;;3.10;1.27;;;-3.00;99.90;;;;;;2216916;64;20084;-35
2021/12/19 06:07:48;;;;;;;4.77;1.20;;;-3.00;99.90;;;;;;2213440;64;20108;-33
2021/12/19 06:10:15;;;;;;;3.60;1.60;;;-2.90;99.90;;;;;;2220087;64;20151;-33
2021/12/19 06:12:42;;;;;;;3.97;1.30;;;-2.90;99.90;;;;;;2220176;64;20477;-34
2021/12/19 06:15:10;;;;;;;6.57;1.80;;;-3.00;99.90;;;;;;2219994;64;20162;-33
2021/12/19 06:17:41;;;;;;;5.77;1.90;;;-2.90;99.90;;;;;;2216730;64;20092;-34
2021/12/19 06:20:09;;;;;;;5.37;1.57;;;-2.90;99.90;;;;;;2216944;64;20100;-35
2021/12/19 06:22:35;;;;;;;5.17;1.87;;;-2.90;99.90;;;;;;2220195;64;20084;-34
2021/12/19 06:25:03;;;;;;;4.13;1.37;;;-3.00;99.90;;;;;;2219867;64;20549;-36
2021/12/19 06:27:30;;;;;;;3.90;2.10;;;-3.00;99.90;;;;;;2216962;64;20093;-34
2021/12/19 06:29:57;;;;;;;3.60;1.37;;;-2.90;99.90;;;;;;2216802;64;20165;-53
2021/12/19 06:32:24;;;;;;;4.50;1.23;;;-2.80;99.90;;;;;;2220233;64;20534;-40
2021/12/19 06:34:51;;;;;;;4.73;1.80;;;-2.90;99.90;;;;;;2219913;64;20104;-43
2021/12/19 06:37:17;;;;;;;3.00;1.30;;;-2.90;99.90;;;;;;2216549;64;20934;-36
2021/12/19 06:39:44;;;;;;;3.40;1.57;;;-3.00;99.90;;;;;;2219931;64;20526;-35
2021/12/19 06:42:11;;;;;;;3.30;1.63;;;-2.90;99.90;;;;;;2215405;64;20187;-34
2021/12/19 06:44:38;;;;;;;3.10;1.43;;;-2.90;99.90;;;;;;2212414;64;20944;-34
2021/12/19 06:47:05;;;;;;;2.63;1.20;;;-3.00;99.90;;;;;;2214871;64;20100;-35
2021/12/19 06:49:32;;;;;;;2.10;1.43;;;-3.00;99.90;;;;;;2208694;64;20177;-37
2021/12/19 06:52:02;;;;;;;6.53;1.57;;;-2.90;99.90;;;;;;2208835;64;20096;-36
2021/12/19 06:54:29;;;;;;;6.50;2.37;;;-2.90;99.90;;;;;;2208636;64;20093;-55
2021/12/19 06:56:56;;;;;;;4.13;1.50;;;-2.90;99.90;;;;;;2208724;64;20512;-35
2021/12/19 06:59:23;;;;;;;4.13;1.40;;;-2.80;99.90;;;;;;2208772;64;20085;-34
2021/12/19 07:01:50;;;;;;;3.97;1.60;;;-2.80;99.90;;;;;;2208641;64;20100;-35
2021/12/19 07:04:17;;;;;;;5.00;1.90;;;-2.70;99.90;;;;;;2208676;64;20113;-36
2021/12/19 07:06:43;;;;;;;3.53;1.73;;;-2.70;99.90;;;;;;2208664;64;20111;-35
2021/12/19 07:09:10;;;;;;;4.10;2.03;;;-2.60;99.90;;;;;;2208654;64;20120;-34
2021/12/19 07:11:37;;;;;;;3.43;1.97;;;-2.50;99.90;;;;;;2211839;64;20093;-39
2021/12/19 07:14:04;;;;;;;2.97;1.57;;;-2.60;99.90;;;;;;2211899;64;20109;-39
2021/12/19 07:16:31;;;;;;;3.73;1.50;;;-2.60;99.90;;;;;;2216083;64;20085;-41
2021/12/19 07:18:58;;;;;;;4.77;1.20;;;-2.50;99.90;;;;;;2216219;64;20101;-36
2021/12/19 07:21:29;;;;;;;6.00;1.80;;;-2.50;99.90;;;;;;2214174;64;20098;-38
2021/12/19 07:23:56;;;;;;;4.57;1.60;;;-2.50;99.90;;;;;;2211290;64;20089;-34
2021/12/19 07:26:24;;;;;;;3.83;1.43;;;-2.50;99.90;;;;;;2207842;64;20536;-38
2021/12/19 07:28:51;;;;;;;3.13;1.33;;;-2.40;99.90;;;;;;2211177;64;20086;-38
2021/12/19 07:31:18;;;;;;;3.63;1.27;;;-2.30;99.90;;;;;;2211128;64;20200;-36
2021/12/19 07:33:45;;;;;;;3.07;1.03;;;-2.30;99.80;;;;;;2211111;64;20097;-36
2021/12/19 07:36:13;;;;;;;5.77;1.40;;;-2.30;99.70;;;;;;2211272;64;20093;-35
2021/12/19 07:38:52;;;;;;;2.20;1.10;;;-2.20;99.80;;;;;;2211194;64;20112;-34
2021/12/19 07:41:19;;;;;;;2.90;0.90;;;-2.20;99.80;;;;;;2211199;64;20090;-34
2021/12/19 07:43:46;;;;;;;1.70;1.07;;;-2.10;99.70;;;;;;2211225;64;20119;-35
2021/12/19 07:46:13;;;;;;;4.43;1.43;;;-2.10;99.60;;;;;;2211333;64;20077;-37
2021/12/19 07:48:40;;;;;;;3.50;1.40;;;-2.10;99.40;;;;;;2211729;64;20115;-37
2021/12/19 07:51:06;;;;;;;2.83;1.57;;;-2.20;99.60;;;;;;2211746;64;20536;-41
2021/12/19 07:53:33;;;;;;;2.30;1.67;;;-2.10;99.50;;;;;;2216131;64;20568;-38
2021/12/19 07:56:00;;;;;;;3.23;1.60;;;-2.10;99.60;;;;;;2219800;64;20085;-38
2021/12/19 07:58:27;;;;;;;5.47;1.83;;;-2.10;99.70;;;;;;2216429;64;20115;-36
2021/12/19 08:00:54;;;;;;;6.30;1.33;;;-2.00;99.80;;;;;;2216551;64;20091;-36
2021/12/19 08:03:20;;;;;;;4.33;1.50;;;-1.90;99.70;;;;;;2219820;64;20080;-36
2021/12/19 08:05:48;;;;;;;4.80;2.43;;;-1.90;99.50;;;;;;2219742;64;20084;-36
2021/12/19 08:08:25;;;;;;;2.77;1.83;;;-1.70;99.50;;;;;;2222830;64;20134;-42
2021/12/19 08:13:38;;;;;;;2.93;1.40;;;-1.70;99.30;;;;;;2214449;64;20098;-34
2021/12/19 08:16:05;;;;;;;2.87;1.27;;;-1.80;99.50;;;;;;2217211;64;20112;-36
2021/12/19 08:18:32;;;;;;;3.97;1.80;;;-1.80;99.20;;;;;;2217204;64;20080;-35
2021/12/19 08:20:59;;;;;;;3.77;1.10;;;-1.70;99.10;;;;;;2220350;64;20562;-42
2021/12/19 08:23:26;;;;;;;2.63;1.47;;;-1.90;98.90;;;;;;2220588;64;20552;-37
2021/12/19 08:25:53;;;;;;;4.40;1.83;;;-1.90;99.10;;;;;;2220489;64;20084;-39
2021/12/19 08:28:20;;;;;;;2.80;1.40;;;-1.70;99.20;;;;;;2220301;64;20115;-34
2021/12/19 08:30:47;;;;;;;2.27;0.87;;;-1.80;99.10;;;;;;2220235;64;20081;-39
2021/12/19 08:33:14;;;;;;;3.03;1.03;;;-1.60;99.10;;;;;;2220503;64;20575;-38
2021/12/19 08:35:41;;;;;;;2.83;1.23;;;-1.70;98.60;;;;;;2220228;64;20649;-37
2021/12/19 08:38:08;;;;;;;4.43;1.93;;;-1.70;99.00;;;;;;2220331;64;20097;-38
2021/12/19 08:40:35;;;;;;;2.00;1.00;;;-1.60;99.00;;;;;;2220300;64;20105;-56
2021/12/19 08:43:02;;;;;;;1.93;1.07;;;-1.60;98.50;;;;;;2208199;64;20090;-39
2021/12/19 08:45:29;;;;;;;2.87;1.13;;;-1.50;98.30;;;;;;2211482;64;20179;-37
2021/12/19 08:47:56;;;;;;;1.93;0.80;;;-1.50;98.30;;;;;;2204251;64;20090;-38
2021/12/19 08:50:23;;;;;;;2.13;1.10;;;-1.50;98.20;;;;;;2204667;64;20109;-41
2021/12/19 08:52:52;;;;;;;1.80;0.90;;;-1.50;98.30;;;;;;2207567;64;20231;-38
2021/12/19 08:55:19;;;;;;;1.83;0.80;;;-1.50;98.20;;;;;;2207663;64;20078;-36
2021/12/19 08:57:46;;;;;;;3.37;1.00;;;-1.40;98.20;;;;;;2207690;64;20655;-36
2021/12/19 09:00:13;;;;;;;2.23;0.83;;;-1.40;98.20;;;;;;2207824;64;20528;-38
2021/12/19 09:02:46;;;;;;;1.67;0.90;;;-1.30;98.00;;;;;;2207622;64;20164;-36
2021/12/19 09:05:13;;;;;;;2.50;1.40;;;-1.30;98.00;;;;;;2207747;64;20090;-36
2021/12/19 09:07:40;;;;;;;1.93;1.00;;;-1.30;97.90;;;;;;2207694;64;20098;-37
2021/12/19 09:10:08;;;;;;;2.20;0.80;;;-1.20;98.20;;;;;;2207854;64;20144;-39
2021/12/19 09:12:35;;;;;;;4.00;1.30;;;-1.10;98.10;;;;;;2207673;64;20105;-37
2021/12/19 09:15:02;;;;;;;2.40;1.17;;;-1.10;97.80;;;;;;2215002;64;20081;-40
2021/12/19 09:17:28;;;;;;;2.60;1.13;;;-1.10;97.80;;;;;;2216487;64;20081;-40
2021/12/19 09:19:55;;;;;;;2.20;1.07;;;-1.10;97.80;;;;;;2216289;64;20093;-39
2021/12/19 09:22:22;;;;;;;1.80;0.97;;;-1.10;97.70;;;;;;2216421;64;20230;-36
2021/12/19 09:24:49;;;;;;;3.17;1.30;;;-1.10;97.30;;;;;;2216538;64;20085;-37
2021/12/19 09:27:17;;;;;;;3.13;1.67;;;-1.00;97.70;;;;;;2216354;64;20174;-36
2021/12/19 09:29:44;;;;;;;2.97;1.33;;;-1.10;97.50;;;;;;2212910;64;20144;-40
2021/12/19 09:32:11;;;;;;;4.33;1.10;;;-1.10;97.50;;;;;;2216346;64;20089;-37
2021/12/19 09:34:37;;;;;;;1.50;0.80;;;-1.00;97.20;;;;;;2216475;64;20238;-57
2021/12/19 09:37:04;;;;;;;2.90;1.37;;;-1.00;97.30;;;;;;2213141;64;20093;-37
2021/12/19 09:39:32;;;;;;;3.30;1.70;;;-1.20;97.10;;;;;;2216089;64;20101;-38
2021/12/19 09:42:06;;;;;;;2.47;0.97;;;-1.20;97.50;;;;;;2216441;64;20085;-39
2021/12/19 09:44:33;;;;;;;2.70;1.10;;;-1.10;97.50;;;;;;2216290;64;20112;-39
2021/12/19 09:47:01;;;;;;;2.70;1.33;;;-1.20;97.20;;;;;;2217679;64;20097;-38
2021/12/19 09:49:28;;;;;;;2.90;1.10;;;-1.10;97.50;;;;;;2217142;64;20093;-39
2021/12/19 09:51:54;;;;;;;2.47;1.00;;;-1.10;97.30;;;;;;2216889;64;20101;-37
2021/12/19 09:54:21;;;;;;;2.50;1.50;;;-1.10;97.40;;;;;;2220259;64;20088;-39
2021/12/19 09:56:49;;;;;;;2.30;1.47;;;-1.10;97.20;;;;;;2220054;64;20084;-38
2021/12/19 09:59:18;;;;;;;5.83;1.77;;;-1.00;97.30;;;;;;2216710;64;20234;-39
2021/12/19 10:01:45;;;;;;;4.67;1.70;;;-1.00;97.10;;;;;;2216789;64;20096;-40
2021/12/19 10:04:36;;;;;;;4.23;1.43;;;-0.90;97.30;;;;;;2216889;64;20108;-41
2021/12/19 10:07:09;;;;;;;4.50;1.90;;;-1.00;97.40;;;;;;2216864;64;20073;-39
2021/12/19 10:10:00;;;;;;;3.17;1.37;;;-0.90;97.20;;;;;;2220284;64;20092;-43
2021/12/19 10:15:06;;;;;;;;;;;-0.60;97.40;;;;;;2216982;64;20108;-38
2021/12/19 10:17:32;;;;;;;3.33;1.57;;;-0.40;96.70;;;;;;2220060;64;19964;-37
2021/12/19 10:20:02;;;;;;;4.37;2.47;;;-0.50;96.80;;;;;;2219998;64;20540;-39
2021/12/19 10:22:37;;;;;;;3.40;1.73;;;-0.20;96.90;;;;;;2216863;64;20095;-47
2021/12/19 10:25:13;;;;;;;6.75;2.80;;;-0.20;96.40;;;;;;2216969;64;20590;-41
2021/12/19 10:28:08;;;;;;;2.83;2.20;;;0.00;96.40;;;;;;2216792;64;20594;-42
2021/12/19 10:30:35;;;;;;;4.60;2.25;;;0.00;96.10;;;;;;2222549;64;20115;-44
2021/12/19 10:33:07;;;;;;;5.53;2.67;;;0.00;95.50;;;;;;2216978;64;20544;-39
2021/12/19 10:35:42;;;;;;;4.23;2.53;;;0.00;96.00;;;;;;2216401;64;20564;-48
2021/12/19 10:38:20;;;;;;;5.60;2.38;;;-0.20;96.00;;;;;;2216996;64;20084;-46
2021/12/19 10:41:12;;;;;;;4.50;2.40;;;-0.30;96.10;;;;;;2213705;64;20089;-58
2021/12/19 10:44:04;;;;;;;5.83;2.80;;;-0.50;95.90;;;;;;2217899;64;20194;-53
2021/12/19 10:46:38;;;;;;;3.93;2.00;;;-0.60;96.20;;;;;;2219214;64;20112;-44
2021/12/19 10:49:20;;;;;;;6.00;2.53;;;-0.70;96.60;;;;;;2219625;64;20101;-41
2021/12/19 10:51:48;;;;;;;6.30;2.30;;;-0.80;96.40;;;;;;2216063;64;20100;-39
2021/12/19 10:54:15;;;;;;;3.57;1.97;;;-1.00;96.00;;;;;;2215936;64;20153;-38
2021/12/19 10:56:42;;;;;;;4.40;1.93;;;-1.20;96.20;;;;;;2219465;64;20640;-37
2021/12/19 10:59:17;;;;;;;5.10;2.20;;;-1.40;96.50;;;;;;2216305;64;20456;-38
2021/12/19 11:01:48;;;;;;;3.70;2.05;;;-1.30;96.70;;;;;;2216045;64;20105;-45
2021/12/19 11:04:22;;;;;;;4.07;2.07;;;-1.40;96.20;;;;;;2216271;64;20085;-43
2021/12/19 11:06:57;;;;;;;6.20;2.03;;;-1.50;96.50;;;;;;2216160;64;20101;-44
2021/12/19 11:09:24;;;;;;;6.18;2.40;;;-1.70;96.40;;;;;;2219169;64;20111;-46
2021/12/19 11:11:52;;;;;;;4.17;1.90;;;-1.70;96.40;;;;;;2216326;64;20089;-43
2021/12/19 11:14:25;;;;;;;5.90;1.80;;;-1.80;96.60;;;;;;2216118;64;20588;-43
2021/12/19 11:16:54;;;;;;;4.93;1.80;;;-2.00;96.80;;;;;;2216385;64;20077;-41
2021/12/19 11:19:21;;;;;;;3.67;1.63;;;-2.00;97.20;;;;;;2215871;64;20190;-39
2021/12/19 11:21:48;;;;;;;4.40;1.80;;;-2.10;97.20;;;;;;2216164;64;20159;-38
2021/12/19 11:24:20;;;;;;;2.70;1.10;;;-2.10;97.60;;;;;;2215955;64;20085;-39
2021/12/19 11:26:49;;;;;;;2.00;1.00;;;-2.10;97.90;;;;;;2216169;64;20166;-38
2021/12/19 11:29:16;;;;;;;2.80;1.10;;;-2.10;98.00;;;;;;2219179;64;20096;-36
2021/12/19 11:31:46;;;;;;;1.93;0.80;;;-2.20;98.10;;;;;;2215982;64;20089;-34
2021/12/19 11:34:49;;;;;;;1.63;1.07;;;-2.20;98.20;;;;;;2212761;64;20115;-36
2021/12/19 11:37:22;;;;;;;1.83;0.80;;;-2.30;98.50;;;;;;2213156;64;20081;-36
2021/12/19 11:39:51;;;;;;;2.83;1.17;;;-2.30;98.70;;;;;;2212842;64;20111;-35
2021/12/19 11:42:28;;;;;;;3.00;1.00;;;-2.30;98.70;;;;;;2215931;64;20109;-38
2021/12/19 11:47:54;;;;;;;3.00;1.03;;;-2.50;99.00;;;;;;2220096;64;20093;-34
2021/12/19 11:50:23;;;;;;;1.43;0.63;;;-2.50;99.10;;;;;;2216804;64;20499;-34
2021/12/19 11:52:51;;;;;;;1.70;0.60;;;-2.50;99.20;;;;;;2217091;64;20080;-35
2021/12/19 11:55:51;;;;;;;1.73;0.83;;;-2.40;99.20;;;;;;2217299;64;20473;-33
2021/12/19 11:58:19;;;;;;;1.37;0.67;;;-2.50;99.30;;;;;;2207872;64;20657;-36
2021/12/19 12:00:50;;;;;;;1.97;1.13;;;-2.50;99.40;;;;;;2204599;64;20100;-45
2021/12/19 12:03:21;;;;;;;1.40;0.73;;;-2.60;99.50;;;;;;2201706;64;20085;-34
2021/12/19 12:05:50;;;;;;;1.80;1.07;;;-2.60;99.70;;;;;;2204540;64;20090;-35
2021/12/19 12:08:24;;;;;;;1.57;0.97;;;-2.70;99.80;;;;;;2198410;64;20164;-45
2021/12/19 12:10:59;;;;;;;1.98;1.00;;;-2.70;99.80;;;;;;2201477;64;20090;-35
2021/12/19 12:13:33;;;;;;;2.15;0.90;;;-2.80;99.90;;;;;;2204661;64;20168;-35
2021/12/19 12:16:14;;;;;;;2.03;0.88;;;-2.90;99.90;;;;;;2201309;64;20137;-36
2021/12/19 12:18:42;;;;;;;3.00;1.00;;;-2.90;99.90;;;;;;2204795;64;20094;-33
2021/12/19 12:23:52;;;;;;;2.30;1.00;;;-2.90;99.90;;;;;;2204650;64;20197;-46
2021/12/19 12:26:59;;;;;;;3.87;1.43;;;-2.90;99.90;;;;;;2204673;64;20090;-37
2021/12/19 12:29:26;;;;;;;2.40;0.90;;;-2.90;99.90;;;;;;2204532;64;20066;-34
2021/12/19 12:31:53;;;;;;;4.00;0.97;;;-2.90;99.90;;;;;;2204658;64;20125;-33
2021/12/19 12:34:21;;;;;;;2.97;1.27;;;-2.90;99.90;;;;;;2214262;64;20499;-34
2021/12/19 12:36:48;;;;;;;1.53;0.90;;;-2.90;99.90;;;;;;2217253;64;20095;-34
2021/12/19 12:39:19;;;;;;;1.90;0.70;;;-3.00;99.90;;;;;;2217187;64;20085;-34
2021/12/19 12:44:15;;;;;;;2.30;0.67;;;-2.90;99.90;;;;;;2220358;64;20120;-36
2021/12/19 12:46:42;;;;;;;2.53;0.90;;;-2.90;99.90;;;;;;2216281;64;20123;-35
2021/12/19 12:49:10;;;;;;;1.97;1.10;;;-2.90;99.90;;;;;;2216352;64;20097;-36
2021/12/19 12:52:10;;;;;;;2.70;1.87;;;-3.00;99.90;;;;;;2216515;64;20103;-37
2021/12/19 12:54:38;;;;;;;2.10;0.97;;;-3.00;99.90;;;;;;2200589;65;20099;-37
2021/12/19 12:57:11;;;;;;;2.40;1.30;;;-3.10;99.90;;;;;;2203697;65;20113;-35
2021/12/19 12:59:42;;;;;;;2.30;1.20;;;-3.10;99.90;;;;;;2203680;65;20110;-34
2021/12/19 13:02:23;;;;;;;3.07;1.17;;;-3.20;99.90;;;;;;2203560;65;20106;-38
2021/12/19 13:04:50;;;;;;;2.33;1.37;;;-3.20;99.90;;;;;;2203951;65;20111;-48
2021/12/19 13:07:18;;;;;;;1.93;0.80;;;-3.20;99.90;;;;;;2203947;64;20090;-37
2021/12/19 13:09:57;;;;;;;3.93;1.10;;;-3.20;99.90;;;;;;2203953;65;20640;-37
2021/12/19 13:12:46;;;;;;;2.80;0.87;;;-3.20;99.90;;;;;;2203729;65;20168;-35
2021/12/19 13:15:15;;;;;;;1.90;0.80;;;-3.20;99.90;;;;;;2203847;65;20570;-36
2021/12/19 13:17:48;;;;;;;2.63;1.07;;;-3.30;99.90;;;;;;2203673;65;20432;-35
2021/12/19 13:20:22;;;;;;;3.57;1.03;;;-3.20;99.90;;;;;;2203921;65;20084;-36
2021/12/19 13:22:55;;;;;;;2.20;0.90;;;-3.30;99.90;;;;;;2203760;65;20145;-34
2021/12/19 13:25:28;;;;;;;5.50;1.67;;;-3.30;99.90;;;;;;2203591;64;20086;-35
2021/12/19 13:27:55;;;;;;;2.67;1.07;;;-3.30;99.90;;;;;;2203886;65;20082;-36
2021/12/19 13:30:27;;;;;;;2.83;0.90;;;-3.30;99.90;;;;;;2205936;64;20178;-44
2021/12/19 13:32:56;;;;;;;2.87;1.27;;;-3.30;99.90;;;;;;2219448;64;20109;-35
2021/12/19 13:35:33;;;;;;;2.87;1.37;;;-3.30;99.90;;;;;;2219105;64;20107;-34
2021/12/19 13:38:13;;;;;;;2.70;1.03;;;-3.30;99.90;;;;;;2216400;64;20107;-34
2021/12/19 13:40:41;;;;;;;2.93;1.03;;;-3.30;99.90;;;;;;2216080;64;20096;-35
2021/12/19 13:43:13;;;;;;;2.00;0.80;;;-3.30;99.90;;;;;;2216143;64;20077;-36
2021/12/19 13:45:56;;;;;;;2.60;0.90;;;-3.30;99.90;;;;;;2216317;64;20159;-35
2021/12/19 13:48:40;;;;;;;2.60;0.43;;;-3.30;99.90;;;;;;2216626;64;20077;-36
2021/12/19 13:51:13;;;;;;;1.63;0.70;;;-3.30;99.90;;;;;;2213972;64;20142;-35
2021/12/19 13:53:48;;;;;;;2.37;1.27;;;-3.30;99.90;;;;;;2216796;64;20093;-36
2021/12/19 13:56:16;;;;;;;1.77;0.90;;;-3.30;99.90;;;;;;2216504;64;20175;-35
2021/12/19 13:58:48;;;;;;;2.30;0.97;;;-3.30;99.90;;;;;;2220129;64;20094;-35
2021/12/19 14:01:19;;;;;;;1.77;1.10;;;-3.30;99.90;;;;;;2216676;64;20171;-39
2021/12/19 14:04:16;;;;;;;3.50;1.13;;;-3.30;99.90;;;;;;2216764;64;20102;-37
2021/12/19 14:06:45;;;;;;;2.73;1.10;;;-3.30;99.90;;;;;;2219795;64;20628;-35
2021/12/19 14:09:13;;;;;;;1.60;1.07;;;-3.30;99.90;;;;;;2216811;64;20654;-36